createdAt,value
2022-07-28T00:00:41.337Z,2.80
2022-07-28T00:03:07.996Z,3.17
2022-07-28T00:05:34.745Z,2.70
2022-07-28T00:08:01.422Z,3.00
2022-07-28T00:10:28.220Z,3.13
2022-07-28T00:12:54.913Z,3.50
2022-07-28T00:15:21.539Z,2.67
2022-07-28T00:17:48.099Z,2.97
2022-07-28T00:20:14.727Z,3.10
2022-07-28T00:22:42.967Z,3.30
2022-07-28T00:25:10.553Z,3.47
2022-07-28T00:27:37.931Z,2.93
2022-07-28T00:30:08.354Z,3.20
2022-07-28T00:32:35.051Z,3.30
2022-07-28T00:35:02.409Z,3.00
2022-07-28T00:37:29.260Z,2.90
2022-07-28T00:39:56.202Z,3.37
2022-07-28T00:42:22.947Z,3.23
2022-07-28T00:44:49.753Z,3.00
2022-07-28T00:47:16.596Z,3.40
2022-07-28T00:49:45.343Z,3.03
2022-07-28T00:52:13.301Z,3.00
2022-07-28T00:54:40.333Z,3.40
2022-07-28T00:57:06.918Z,3.50
2022-07-28T00:59:33.851Z,3.20
2022-07-28T01:02:01.673Z,3.23
2022-07-28T01:04:28.890Z,3.63
2022-07-28T01:07:20.757Z,3.17
2022-07-28T01:09:59.831Z,3.57
2022-07-28T01:13:09.601Z,3.40
2022-07-28T01:15:48.962Z,5.17
2022-07-28T01:18:20.503Z,3.17
2022-07-28T01:20:52.869Z,3.30
2022-07-28T01:23:31.370Z,3.70
2022-07-28T01:26:32.266Z,3.27
2022-07-28T01:29:37.024Z,3.30
2022-07-28T01:32:08.363Z,3.40
2022-07-28T01:35:00.551Z,3.20
2022-07-28T01:37:32.532Z,3.37
2022-07-28T01:40:03.171Z,3.50
2022-07-28T01:42:35.844Z,3.80
2022-07-28T01:45:04.184Z,3.60
2022-07-28T01:47:32.213Z,3.30
2022-07-28T01:50:04.585Z,3.27
2022-07-28T01:52:32.493Z,3.47
2022-07-28T01:55:02.570Z,3.50
2022-07-28T01:57:32.701Z,3.40
2022-07-28T02:00:01.035Z,3.83
2022-07-28T02:02:31.112Z,3.63
2022-07-28T02:05:00.210Z,3.20
2022-07-28T02:07:28.906Z,3.53
2022-07-28T02:09:57.637Z,3.33
2022-07-28T02:12:26.275Z,2.97
2022-07-28T02:14:54.895Z,3.63
2022-07-28T02:17:28.062Z,3.50
2022-07-28T02:19:56.935Z,3.60
2022-07-28T02:22:27.062Z,3.07
2022-07-28T02:24:55.667Z,3.70
2022-07-28T02:27:38.742Z,3.80
2022-07-28T02:30:14.558Z,3.60
2022-07-28T02:32:53.910Z,3.67
2022-07-28T02:35:39.815Z,3.30
2022-07-28T02:38:15.068Z,3.60
2022-07-28T02:40:44.311Z,4.20
2022-07-28T02:43:15.877Z,3.63
2022-07-28T02:45:46.265Z,3.53
2022-07-28T02:48:17.482Z,3.90
2022-07-28T02:50:46.599Z,3.37
2022-07-28T02:53:16.286Z,3.60
2022-07-28T02:55:46.378Z,3.70
2022-07-28T02:58:15.665Z,3.73
2022-07-28T03:00:43.432Z,3.83
2022-07-28T03:03:11.421Z,3.93
2022-07-28T03:05:40.387Z,3.40
2022-07-28T03:08:07.407Z,4.00
2022-07-28T03:10:34.860Z,4.10
2022-07-28T03:13:03.819Z,3.77
2022-07-28T03:15:31.111Z,3.43
2022-07-28T03:17:58.391Z,3.87
2022-07-28T03:20:25.290Z,3.80
2022-07-28T03:22:51.867Z,4.10
2022-07-28T03:25:32.747Z,3.73
2022-07-28T03:28:00.931Z,4.10
2022-07-28T03:30:32.176Z,3.87
2022-07-28T03:33:02.908Z,4.10
2022-07-28T03:35:33.055Z,3.83
2022-07-28T03:38:04.535Z,3.90
2022-07-28T03:40:33.022Z,3.90
2022-07-28T03:43:03.614Z,4.33
2022-07-28T03:45:32.888Z,4.07
2022-07-28T03:47:59.463Z,4.43
2022-07-28T03:50:30.918Z,4.40
2022-07-28T03:52:58.784Z,4.27
2022-07-28T03:55:26.368Z,4.20
2022-07-28T03:57:53.128Z,4.03
2022-07-28T04:00:21.090Z,3.80
2022-07-28T04:02:47.764Z,3.87
2022-07-28T04:05:16.287Z,4.03
2022-07-28T04:07:44.240Z,4.30
2022-07-28T04:10:13.973Z,4.10
2022-07-28T04:12:55.048Z,4.10
2022-07-28T04:15:22.902Z,4.40
2022-07-28T04:17:50.825Z,4.20
2022-07-28T04:20:18.906Z,4.57
2022-07-28T04:22:46.436Z,4.23
2022-07-28T04:25:14.238Z,4.20
2022-07-28T04:27:42.737Z,4.47
2022-07-28T04:30:17.118Z,4.50
2022-07-28T04:32:49.526Z,4.40
2022-07-28T04:35:18.051Z,4.43
2022-07-28T04:37:46.048Z,4.47
2022-07-28T04:40:13.737Z,4.53
2022-07-28T04:42:41.168Z,4.87
2022-07-28T04:45:09.681Z,5.27
2022-07-28T04:47:37.078Z,4.83
2022-07-28T04:50:05.725Z,4.70
2022-07-28T04:52:33.883Z,4.53
2022-07-28T04:55:01.005Z,4.53
2022-07-28T04:57:29.905Z,4.50
2022-07-28T04:59:57.445Z,3.93
2022-07-28T05:02:24.329Z,4.73
2022-07-28T05:04:51.261Z,4.30
2022-07-28T05:07:18.218Z,4.10
2022-07-28T05:09:44.993Z,3.87
2022-07-28T05:12:11.766Z,3.73
2022-07-28T05:14:38.353Z,3.70
2022-07-28T05:17:05.012Z,4.13
2022-07-28T05:19:31.619Z,3.90
2022-07-28T05:21:58.214Z,5.10
2022-07-28T05:24:24.926Z,4.03
2022-07-28T05:26:51.671Z,4.23
2022-07-28T05:29:18.286Z,4.60
2022-07-28T05:31:44.992Z,3.80
2022-07-28T05:34:11.957Z,4.07
2022-07-28T05:36:39.131Z,3.80
2022-07-28T05:39:05.679Z,3.87
2022-07-28T05:41:32.530Z,3.67
2022-07-28T05:44:01.275Z,3.73
2022-07-28T05:46:28.424Z,3.80
2022-07-28T05:48:55.158Z,3.43
2022-07-28T05:51:22.051Z,4.03
2022-07-28T05:53:48.663Z,3.50
2022-07-28T05:56:15.430Z,3.27
2022-07-28T05:58:42.085Z,3.80
2022-07-28T06:01:08.833Z,3.43
2022-07-28T06:03:41.504Z,3.53
2022-07-28T06:06:15.600Z,3.50
2022-07-28T06:08:44.414Z,3.43
2022-07-28T06:11:11.888Z,3.40
2022-07-28T06:13:46.776Z,3.50
2022-07-28T06:16:13.632Z,3.30
2022-07-28T06:18:40.503Z,3.50
2022-07-28T06:21:07.151Z,3.60
2022-07-28T06:23:33.956Z,3.10
2022-07-28T06:26:00.830Z,3.50
2022-07-28T06:28:27.484Z,3.40
2022-07-28T06:30:54.250Z,3.40
2022-07-28T06:33:20.938Z,3.37
2022-07-28T06:35:51.320Z,3.00
2022-07-28T06:38:20.476Z,3.83
2022-07-28T06:40:48.499Z,3.40
2022-07-28T06:43:15.234Z,3.73
2022-07-28T06:45:41.884Z,3.37
2022-07-28T06:48:08.916Z,3.77
2022-07-28T06:50:39.365Z,3.83
2022-07-28T06:53:06.486Z,4.10
2022-07-28T06:55:35.408Z,3.77
2022-07-28T06:58:03.501Z,4.20
2022-07-28T07:00:30.599Z,3.70
2022-07-28T07:02:57.364Z,3.60
2022-07-28T07:05:24.159Z,3.57
2022-07-28T07:07:50.752Z,3.50
2022-07-28T07:10:17.651Z,3.80
2022-07-28T07:12:44.320Z,3.50
2022-07-28T07:15:11.477Z,3.90
2022-07-28T07:17:38.461Z,3.97
2022-07-28T07:20:06.738Z,3.87
2022-07-28T07:22:33.747Z,3.90
2022-07-28T07:25:17.074Z,4.03
2022-07-28T07:27:44.849Z,4.10
2022-07-28T07:30:12.661Z,3.70
2022-07-28T07:32:39.747Z,3.20
2022-07-28T07:35:07.127Z,3.30
2022-07-28T07:37:33.711Z,3.80
2022-07-28T07:40:01.472Z,3.60
2022-07-28T07:42:28.336Z,3.90
2022-07-28T07:44:55.530Z,3.40
2022-07-28T07:47:22.398Z,3.70
2022-07-28T07:49:49.450Z,4.00
2022-07-28T07:52:16.137Z,3.80
2022-07-28T07:54:43.142Z,3.87
2022-07-28T07:57:10.548Z,4.20
2022-07-28T07:59:37.218Z,4.33
2022-07-28T08:02:04.209Z,3.67
2022-07-28T08:04:31.097Z,3.40
2022-07-28T08:06:57.745Z,3.83
2022-07-28T08:09:25.051Z,3.10
2022-07-28T08:11:51.855Z,3.83
2022-07-28T08:14:18.833Z,3.70
2022-07-28T08:16:45.623Z,3.57
2022-07-28T08:19:12.422Z,3.87
2022-07-28T08:21:39.219Z,3.90
2022-07-28T08:24:06.239Z,4.07
2022-07-28T08:26:33.295Z,4.00
2022-07-28T08:28:59.919Z,3.97
2022-07-28T08:31:26.732Z,3.70
2022-07-28T08:33:54.746Z,3.93
2022-07-28T08:36:22.287Z,4.17
2022-07-28T08:38:48.903Z,3.90
2022-07-28T08:41:44.301Z,4.43
2022-07-28T08:44:16.083Z,3.60
2022-07-28T08:46:44.275Z,3.80
2022-07-28T08:49:12.879Z,4.30
2022-07-28T08:51:42.928Z,4.20
2022-07-28T08:54:15.535Z,3.50
2022-07-28T08:56:48.128Z,3.60
2022-07-28T08:59:15.366Z,3.93
2022-07-28T09:01:42.504Z,3.77
2022-07-28T09:04:10.085Z,4.10
2022-07-28T09:06:42.361Z,3.83
2022-07-28T09:09:10.130Z,4.40
2022-07-28T09:11:40.134Z,4.27
2022-07-28T09:14:07.132Z,4.20
2022-07-28T09:16:34.009Z,3.97
2022-07-28T09:19:00.680Z,4.37
2022-07-28T09:21:27.640Z,4.03
2022-07-28T09:23:54.570Z,4.53
2022-07-28T09:26:21.164Z,4.30
2022-07-28T09:28:57.434Z,4.70
2022-07-28T09:31:25.942Z,4.37
2022-07-28T09:34:01.070Z,4.18
2022-07-28T09:36:29.758Z,4.10
2022-07-28T09:38:56.986Z,4.23
2022-07-28T09:41:24.172Z,4.18
2022-07-28T09:43:55.217Z,3.92
2022-07-28T09:46:24.826Z,4.30
2022-07-28T09:48:55.887Z,4.10
2022-07-28T09:51:27.884Z,3.80
2022-07-28T09:54:07.694Z,4.03
2022-07-28T09:56:34.793Z,3.90
2022-07-28T09:59:03.458Z,3.75
2022-07-28T10:01:33.375Z,3.78
2022-07-28T10:04:03.824Z,4.10
2022-07-28T10:06:34.494Z,4.10
2022-07-28T10:09:03.400Z,3.53
2022-07-28T10:11:31.027Z,4.32
2022-07-28T10:14:03.214Z,3.75
2022-07-28T10:16:34.490Z,3.90
2022-07-28T10:19:04.604Z,4.07
2022-07-28T10:21:33.656Z,4.00
2022-07-28T10:24:05.265Z,4.20
2022-07-28T10:26:33.647Z,4.47
2022-07-28T10:29:04.617Z,3.88
2022-07-28T10:31:52.570Z,3.80
2022-07-28T10:34:25.505Z,4.10
2022-07-28T10:36:55.805Z,3.65
2022-07-28T10:39:28.780Z,3.78
2022-07-28T10:41:56.476Z,3.95
2022-07-28T10:44:24.563Z,3.45
2022-07-28T10:46:52.775Z,4.25
2022-07-28T10:49:20.950Z,3.70
2022-07-28T10:52:02.539Z,3.90
2022-07-28T10:55:20.295Z,3.90
2022-07-28T10:58:02.107Z,3.57
2022-07-28T11:00:55.447Z,4.10
2022-07-28T11:03:47.682Z,3.78
2022-07-28T11:06:35.824Z,4.20
2022-07-28T11:09:23.368Z,3.78
2022-07-28T11:11:55.213Z,3.97
2022-07-28T11:14:33.809Z,3.80
2022-07-28T11:17:00.536Z,3.78
2022-07-28T11:19:55.643Z,3.55
2022-07-28T11:22:34.233Z,3.60
2022-07-28T11:25:20.565Z,3.88
2022-07-28T11:27:49.804Z,3.40
2022-07-28T11:30:16.469Z,3.25
2022-07-28T11:32:53.421Z,3.38
2022-07-28T11:35:42.574Z,3.78
2022-07-28T11:38:11.001Z,3.20
2022-07-28T11:40:43.775Z,3.80
2022-07-28T11:43:36.630Z,3.78
2022-07-28T11:46:04.872Z,3.20
2022-07-28T11:48:37.120Z,3.53
2022-07-28T11:51:03.685Z,3.10
2022-07-28T11:53:37.832Z,3.78
2022-07-28T11:56:08.491Z,3.67
2022-07-28T11:58:36.103Z,3.70
2022-07-28T12:01:21.463Z,3.38
2022-07-28T12:03:55.678Z,2.85
2022-07-28T12:06:35.887Z,3.65
2022-07-28T12:09:05.097Z,3.38
2022-07-28T12:11:41.201Z,3.28
2022-07-28T12:14:09.049Z,3.42
2022-07-28T12:16:41.034Z,3.28
2022-07-28T12:19:09.936Z,3.70
2022-07-28T12:21:45.986Z,3.05
2022-07-28T12:24:16.623Z,3.08
2022-07-28T12:26:49.249Z,3.17
2022-07-28T12:29:17.469Z,3.40
2022-07-28T12:31:56.059Z,3.58
2022-07-28T12:34:26.826Z,3.03
2022-07-28T12:36:59.461Z,3.10
2022-07-28T12:39:26.411Z,3.05
2022-07-28T12:42:04.703Z,3.00
2022-07-28T12:44:35.575Z,2.90
2022-07-28T12:47:03.086Z,3.15
2022-07-28T12:49:29.799Z,3.30
2022-07-28T12:52:00.703Z,3.30
2022-07-28T12:54:36.257Z,2.70
2022-07-28T12:57:02.940Z,2.63
2022-07-28T12:59:34.359Z,2.80
2022-07-28T13:02:02.761Z,2.60
2022-07-28T13:04:47.028Z,2.92
2022-07-28T13:07:20.468Z,2.85
2022-07-28T13:10:00.261Z,2.80
2022-07-28T13:12:27.749Z,2.88
2022-07-28T13:14:59.772Z,2.97
2022-07-28T13:17:32.150Z,3.17
2022-07-28T13:20:07.794Z,3.25
2022-07-28T13:22:34.458Z,2.58
2022-07-28T13:25:01.848Z,2.75
2022-07-28T13:27:29.321Z,2.80
2022-07-28T13:29:56.144Z,2.88
2022-07-28T13:32:22.900Z,2.80
2022-07-28T13:34:49.710Z,2.80
2022-07-28T13:37:16.691Z,2.80
2022-07-28T13:39:43.911Z,2.95
2022-07-28T13:42:10.584Z,3.00
2022-07-28T13:44:39.930Z,2.80
2022-07-28T13:47:06.807Z,3.13
2022-07-28T13:49:34.508Z,2.67
2022-07-28T13:52:01.870Z,2.67
2022-07-28T13:54:28.649Z,2.47
2022-07-28T13:56:55.736Z,2.78
2022-07-28T13:59:26.427Z,2.75
2022-07-28T14:01:55.468Z,3.00
2022-07-28T14:04:22.402Z,3.15
2022-07-28T14:06:49.274Z,2.90
2022-07-28T14:09:17.921Z,3.22
2022-07-28T14:11:49.420Z,2.67
2022-07-28T14:14:20.160Z,3.50
2022-07-28T14:16:47.798Z,2.92
2022-07-28T14:19:16.618Z,2.88
2022-07-28T14:21:50.297Z,2.92
2022-07-28T14:24:17.685Z,2.88
2022-07-28T14:26:47.323Z,2.70
2022-07-28T14:29:13.917Z,3.03
2022-07-28T14:31:43.075Z,3.17
2022-07-28T14:34:10.484Z,3.13
2022-07-28T14:36:37.369Z,2.72
2022-07-28T14:39:07.916Z,3.17
2022-07-28T14:41:39.103Z,3.05
2022-07-28T14:44:05.827Z,3.22
2022-07-28T14:46:32.446Z,2.95
2022-07-28T14:48:59.283Z,2.97
2022-07-28T14:51:25.984Z,3.10
2022-07-28T14:53:52.619Z,3.13
2022-07-28T14:56:19.296Z,3.10
2022-07-28T14:58:45.918Z,2.83
2022-07-28T15:01:12.516Z,3.30
2022-07-28T15:03:43.429Z,2.78
2022-07-28T15:06:10.832Z,3.00
2022-07-28T15:08:37.753Z,2.80
2022-07-28T15:11:07.432Z,3.13
2022-07-28T15:13:34.361Z,2.85
2022-07-28T15:16:01.261Z,2.75
2022-07-28T15:18:27.932Z,2.42
2022-07-28T15:20:56.413Z,2.75
2022-07-28T15:23:24.403Z,3.03
2022-07-28T15:25:51.545Z,2.92
2022-07-28T15:28:19.281Z,2.60
2022-07-28T15:30:51.865Z,2.97
2022-07-28T15:33:20.556Z,2.97
2022-07-28T15:35:58.450Z,3.13
2022-07-28T15:38:27.850Z,3.17
2022-07-28T15:40:55.170Z,2.90
2022-07-28T15:43:23.853Z,3.00
2022-07-28T15:45:51.239Z,3.40
2022-07-28T15:48:17.882Z,3.45
2022-07-28T15:50:48.474Z,3.20
2022-07-28T15:53:17.925Z,3.20
2022-07-28T15:55:50.491Z,3.60
2022-07-28T15:58:18.040Z,2.90
2022-07-28T16:00:46.039Z,2.70
2022-07-28T16:03:13.321Z,2.75
2022-07-28T16:05:40.328Z,3.13
2022-07-28T16:08:07.052Z,2.80
2022-07-28T16:10:33.825Z,2.67
2022-07-28T16:13:01.603Z,2.55
2022-07-28T16:15:28.331Z,2.72
2022-07-28T16:17:55.361Z,2.78
2022-07-28T16:20:23.520Z,2.78
2022-07-28T16:22:50.846Z,3.10
2022-07-28T16:25:19.992Z,3.10
2022-07-28T16:27:47.558Z,3.08
2022-07-28T16:30:15.769Z,3.78
2022-07-28T16:32:42.890Z,3.17
2022-07-28T16:35:09.966Z,2.88
2022-07-28T16:37:36.804Z,2.65
2022-07-28T16:40:04.580Z,2.83
2022-07-28T16:42:31.733Z,2.90
2022-07-28T16:44:58.728Z,3.00
2022-07-28T16:47:25.322Z,2.90
2022-07-28T16:49:51.928Z,2.97
2022-07-28T16:52:19.594Z,2.70
2022-07-28T16:54:47.712Z,3.35
2022-07-28T16:57:14.888Z,3.30
2022-07-28T16:59:48.813Z,2.50
2022-07-28T17:02:17.000Z,3.00
2022-07-28T17:04:43.735Z,3.33
2022-07-28T17:07:10.560Z,3.72
2022-07-28T17:09:37.360Z,3.50
2022-07-28T17:12:04.246Z,5.35
2022-07-28T17:14:31.009Z,3.05
2022-07-28T17:16:57.648Z,3.00
2022-07-28T17:19:24.419Z,3.33
2022-07-28T17:21:51.092Z,2.80
2022-07-28T17:24:18.528Z,3.00
2022-07-28T17:29:34.759Z,2.97
2022-07-28T17:32:01.431Z,2.63
2022-07-28T17:34:28.069Z,2.70
2022-07-28T17:36:55.779Z,3.15
2022-07-28T17:39:22.406Z,2.90
2022-07-28T17:41:49.169Z,3.00
2022-07-28T17:44:16.093Z,3.10
2022-07-28T17:46:43.096Z,2.85
2022-07-28T17:49:10.009Z,2.90
2022-07-28T17:51:37.658Z,3.05
2022-07-28T17:54:04.776Z,2.80
2022-07-28T17:56:32.670Z,3.45
2022-07-28T17:59:01.007Z,3.15
2022-07-28T18:01:29.032Z,3.17
2022-07-28T18:03:57.744Z,3.45
2022-07-28T18:06:32.237Z,3.67
2022-07-28T18:09:05.421Z,3.50
2022-07-28T18:11:33.641Z,4.68
2022-07-28T18:14:04.881Z,3.67
2022-07-28T18:16:34.642Z,3.35
2022-07-28T18:19:04.805Z,3.22
2022-07-28T18:21:31.437Z,3.30
2022-07-28T18:23:58.112Z,3.33
2022-07-28T18:26:24.774Z,3.90
2022-07-28T18:28:51.439Z,2.78
2022-07-28T18:31:18.114Z,3.50
2022-07-28T18:33:44.890Z,3.90
2022-07-28T18:36:11.544Z,3.40
2022-07-28T18:38:38.208Z,3.60
2022-07-28T18:41:04.835Z,3.50
2022-07-28T18:43:31.469Z,3.50
2022-07-28T18:45:58.287Z,3.80
2022-07-28T18:48:25.689Z,3.60
2022-07-28T18:50:52.726Z,3.58
2022-07-28T18:53:19.668Z,3.13
2022-07-28T18:55:46.280Z,3.33
2022-07-28T18:58:12.940Z,3.55
2022-07-28T19:00:39.794Z,4.13
2022-07-28T19:03:06.552Z,3.92
2022-07-28T19:05:36.376Z,3.88
2022-07-28T19:08:07.298Z,4.05
2022-07-28T19:10:33.933Z,4.38
2022-07-28T19:13:00.517Z,4.37
2022-07-28T19:15:27.198Z,4.60
2022-07-28T19:18:10.451Z,5.20
2022-07-28T19:20:39.796Z,5.20
2022-07-28T19:23:06.632Z,4.73
2022-07-28T19:25:36.605Z,4.53
2022-07-28T19:28:05.440Z,4.53
2022-07-28T19:30:32.405Z,5.20
2022-07-28T19:32:59.519Z,4.80
2022-07-28T19:35:26.241Z,5.40
2022-07-28T19:37:52.889Z,4.23
2022-07-28T19:40:19.736Z,4.40
2022-07-28T19:42:48.531Z,4.83
2022-07-28T19:45:15.448Z,4.70
2022-07-28T19:47:42.712Z,4.43
2022-07-28T19:50:09.679Z,4.30
2022-07-28T19:52:37.575Z,4.70
2022-07-28T19:55:05.411Z,4.80
2022-07-28T19:57:32.952Z,4.40
2022-07-28T19:59:59.868Z,4.80
2022-07-28T20:02:26.646Z,4.80
2022-07-28T20:04:53.348Z,5.40
2022-07-28T20:07:20.066Z,4.57
2022-07-28T20:09:46.711Z,4.80
2022-07-28T20:12:13.341Z,5.00
2022-07-28T20:14:40.002Z,5.63
2022-07-28T20:17:06.695Z,5.30
2022-07-28T20:19:33.775Z,5.23
2022-07-28T20:22:00.436Z,4.90
2022-07-28T20:24:27.143Z,5.20
2022-07-28T20:26:53.781Z,5.80
2022-07-28T20:29:20.390Z,5.50
2022-07-28T20:31:47.007Z,5.90
2022-07-28T20:34:15.238Z,5.30
2022-07-28T20:36:42.426Z,5.20
2022-07-28T20:39:34.374Z,5.47
2022-07-28T20:41:55.930Z,5.50
2022-07-28T20:44:30.643Z,5.13
2022-07-28T20:47:02.342Z,5.67
2022-07-28T20:49:29.631Z,5.80
2022-07-28T20:51:57.530Z,5.23
2022-07-28T20:54:25.154Z,5.27
2022-07-28T20:56:51.950Z,5.23
2022-07-28T20:59:18.587Z,5.67
2022-07-28T21:01:45.382Z,5.20
2022-07-28T21:04:12.838Z,5.60
2022-07-28T21:06:40.058Z,5.60
2022-07-28T21:09:18.400Z,6.10
2022-07-28T21:11:45.038Z,5.30
2022-07-28T21:14:11.678Z,4.80
2022-07-28T21:16:38.422Z,5.70
2022-07-28T21:19:05.766Z,5.80
2022-07-28T21:21:32.471Z,5.40
2022-07-28T21:23:59.068Z,5.23
2022-07-28T21:26:25.750Z,5.77
2022-07-28T21:29:10.991Z,5.50
2022-07-28T21:32:02.057Z,5.40
2022-07-28T21:34:26.735Z,5.27
2022-07-28T21:36:53.419Z,5.33
2022-07-28T21:39:20.007Z,5.80
2022-07-28T21:41:46.612Z,5.30
2022-07-28T21:44:13.288Z,5.30
2022-07-28T21:46:42.414Z,5.80
2022-07-28T21:49:09.129Z,5.10
2022-07-28T21:51:35.868Z,5.50
2022-07-28T21:54:02.466Z,6.10
2022-07-28T21:56:30.186Z,5.63
2022-07-28T21:58:56.890Z,5.67
2022-07-28T22:01:27.169Z,5.63
2022-07-28T22:03:54.763Z,5.57
2022-07-28T22:06:21.946Z,5.17
2022-07-28T22:08:53.902Z,6.23
2022-07-28T22:11:23.252Z,5.70
2022-07-28T22:13:50.361Z,5.70
2022-07-28T22:16:17.980Z,5.60
2022-07-28T22:18:44.662Z,5.30
2022-07-28T22:21:11.368Z,5.83
2022-07-28T22:23:38.050Z,6.97
2022-07-28T22:26:04.672Z,6.07
2022-07-28T22:28:31.326Z,5.40
2022-07-28T22:30:59.021Z,5.43
2022-07-28T22:33:37.742Z,5.67
2022-07-28T22:36:06.804Z,6.03
2022-07-28T22:38:33.657Z,5.63
2022-07-28T22:41:00.317Z,5.03
2022-07-28T22:43:26.887Z,5.20
2022-07-28T22:45:53.547Z,5.70
2022-07-28T22:48:20.133Z,5.27
2022-07-28T22:50:46.779Z,5.83
2022-07-28T22:53:13.378Z,5.67
2022-07-28T22:58:24.521Z,5.13
2022-07-28T23:00:51.459Z,5.13
2022-07-28T23:03:18.699Z,5.67
2022-07-28T23:05:45.518Z,5.83
2022-07-28T23:08:12.254Z,5.13
2022-07-28T23:10:39.857Z,5.90
2022-07-28T23:13:06.824Z,6.17
2022-07-28T23:15:39.610Z,5.87
2022-07-28T23:18:10.622Z,5.60
2022-07-28T23:20:39.026Z,5.80
2022-07-28T23:23:05.793Z,5.77
2022-07-28T23:25:33.103Z,5.10
2022-07-28T23:28:00.666Z,5.33
2022-07-28T23:30:27.343Z,5.63
2022-07-28T23:32:54.767Z,6.07
2022-07-28T23:35:21.410Z,5.27
2022-07-28T23:37:48.103Z,5.03
2022-07-28T23:40:14.817Z,5.37
2022-07-28T23:42:41.452Z,5.73
2022-07-28T23:45:08.951Z,5.50
2022-07-28T23:47:35.632Z,5.80
2022-07-28T23:50:04.040Z,5.30
2022-07-28T23:52:30.720Z,5.10
2022-07-28T23:54:58.655Z,5.53
2022-07-28T23:57:25.284Z,4.97
2022-07-28T23:59:58.040Z,4.87
